sensor_id;sensor_type;location;lat;lon;timestamp;pressure;altitude;pressure_sealevel;temperature;humidity
35806;BME280;21925;44.608;11.580;2023-03-14T00:00:28;101084.00;;;13.43;100.00
35806;BME280;21925;44.608;11.580;2023-03-14T00:02:54;101084.16;;;13.35;100.00
35806;BME280;21925;44.608;11.580;2023-03-14T00:05:20;101059.13;;;13.09;100.00
35806;BME280;21925;44.608;11.580;2023-03-14T00:07:45;101072.81;;;13.21;100.00
35806;BME280;21925;44.608;11.580;2023-03-14T00:10:23;101053.75;;;13.12;100.00
35806;BME280;21925;44.608;11.580;2023-03-14T00:12:48;101024.94;;;13.10;100.00
35806;BME280;21925;44.608;11.580;2023-03-14T00:15:14;101028.22;;;13.15;100.00
35806;BME280;21925;44.608;11.580;2023-03-14T00:17:43;101014.22;;;13.05;100.00
35806;BME280;21925;44.608;11.580;2023-03-14T00:20:09;101030.91;;;13.12;100.00
35806;BME280;21925;44.608;11.580;2023-03-14T00:22:40;101015.28;;;13.00;100.00
35806;BME280;21925;44.608;11.580;2023-03-14T00:25:08;101003.34;;;13.27;100.00
35806;BME280;21925;44.608;11.580;2023-03-14T00:27:34;100997.88;;;12.81;100.00
35806;BME280;21925;44.608;11.580;2023-03-14T00:30:00;101012.63;;;13.04;100.00
35806;BME280;21925;44.608;11.580;2023-03-14T00:32:26;101008.44;;;13.10;100.00
35806;BME280;21925;44.608;11.580;2023-03-14T00:34:51;101011.16;;;13.41;100.00
35806;BME280;21925;44.608;11.580;2023-03-14T00:37:18;100982.75;;;13.21;100.00
35806;BME280;21925;44.608;11.580;2023-03-14T00:39:43;100978.50;;;13.24;100.00
35806;BME280;21925;44.608;11.580;2023-03-14T00:42:09;100980.19;;;13.28;100.00
35806;BME280;21925;44.608;11.580;2023-03-14T00:44:35;100956.22;;;13.66;100.00
35806;BME280;21925;44.608;11.580;2023-03-14T00:47:00;100945.41;;;13.58;100.00
35806;BME280;21925;44.608;11.580;2023-03-14T00:49:26;100930.09;;;13.23;100.00
35806;BME280;21925;44.608;11.580;2023-03-14T00:51:52;100959.38;;;13.50;100.00
35806;BME280;21925;44.608;11.580;2023-03-14T00:54:21;100960.41;;;13.60;100.00
35806;BME280;21925;44.608;11.580;2023-03-14T00:56:47;100947.88;;;13.63;100.00
35806;BME280;21925;44.608;11.580;2023-03-14T00:59:12;100942.88;;;13.87;100.00
35806;BME280;21925;44.608;11.580;2023-03-14T01:01:39;100921.41;;;13.96;100.00
35806;BME280;21925;44.608;11.580;2023-03-14T01:04:05;100899.56;;;13.88;100.00
35806;BME280;21925;44.608;11.580;2023-03-14T01:06:31;100893.00;;;14.15;100.00
35806;BME280;21925;44.608;11.580;2023-03-14T01:08:57;100889.09;;;14.16;100.00
35806;BME280;21925;44.608;11.580;2023-03-14T01:11:32;100866.50;;;14.29;100.00
35806;BME280;21925;44.608;11.580;2023-03-14T01:13:58;100858.97;;;14.52;100.00
35806;BME280;21925;44.608;11.580;2023-03-14T01:16:29;100818.41;;;14.30;100.00
35806;BME280;21925;44.608;11.580;2023-03-14T01:18:55;100829.44;;;14.30;100.00
35806;BME280;21925;44.608;11.580;2023-03-14T01:21:26;100815.59;;;14.27;100.00
35806;BME280;21925;44.608;11.580;2023-03-14T01:23:54;100802.84;;;14.41;100.00
35806;BME280;21925;44.608;11.580;2023-03-14T01:26:21;100808.72;;;14.65;100.00
35806;BME280;21925;44.608;11.580;2023-03-14T01:28:49;100793.56;;;14.82;100.00
35806;BME280;21925;44.608;11.580;2023-03-14T01:31:16;100801.81;;;15.08;100.00
35806;BME280;21925;44.608;11.580;2023-03-14T01:33:42;100762.78;;;15.09;100.00
35806;BME280;21925;44.608;11.580;2023-03-14T01:36:09;100784.34;;;15.29;100.00
35806;BME280;21925;44.608;11.580;2023-03-14T01:38:36;100771.38;;;15.33;100.00
35806;BME280;21925;44.608;11.580;2023-03-14T01:41:04;100743.09;;;15.47;100.00
35806;BME280;21925;44.608;11.580;2023-03-14T01:43:29;100738.84;;;15.53;100.00
35806;BME280;21925;44.608;11.580;2023-03-14T01:51:11;100721.44;;;15.52;100.00
35806;BME280;21925;44.608;11.580;2023-03-14T01:53:40;100715.75;;;15.35;99.81
35806;BME280;21925;44.608;11.580;2023-03-14T01:56:09;100718.13;;;15.36;99.68
35806;BME280;21925;44.608;11.580;2023-03-14T01:58:37;100733.19;;;15.42;99.45
35806;BME280;21925;44.608;11.580;2023-03-14T02:01:06;100723.63;;;15.33;99.07
35806;BME280;21925;44.608;11.580;2023-03-14T02:03:37;100725.16;;;15.30;99.29
35806;BME280;21925;44.608;11.580;2023-03-14T02:06:06;100728.38;;;15.36;98.54
35806;BME280;21925;44.608;11.580;2023-03-14T02:08:35;100738.00;;;15.52;96.10
35806;BME280;21925;44.608;11.580;2023-03-14T02:11:05;100734.16;;;15.60;95.05
35806;BME280;21925;44.608;11.580;2023-03-14T02:13:48;100729.34;;;15.50;94.83
35806;BME280;21925;44.608;11.580;2023-03-14T02:16:34;100724.69;;;15.61;94.32
35806;BME280;21925;44.608;11.580;2023-03-14T02:19:11;100734.53;;;15.59;93.01
35806;BME280;21925;44.608;11.580;2023-03-14T02:24:25;100751.66;;;15.75;90.56
35806;BME280;21925;44.608;11.580;2023-03-14T02:27:09;100737.75;;;15.64;90.00
35806;BME280;21925;44.608;11.580;2023-03-14T02:30:03;100745.25;;;15.67;89.61
35806;BME280;21925;44.608;11.580;2023-03-14T02:32:32;100742.59;;;15.74;89.12
35806;BME280;21925;44.608;11.580;2023-03-14T02:35:01;100730.66;;;15.67;88.39
35806;BME280;21925;44.608;11.580;2023-03-14T02:37:34;100722.75;;;15.65;88.26
35806;BME280;21925;44.608;11.580;2023-03-14T02:40:01;100741.94;;;15.51;89.39
35806;BME280;21925;44.608;11.580;2023-03-14T02:42:27;100737.28;;;15.55;89.08
35806;BME280;21925;44.608;11.580;2023-03-14T02:44:59;100746.47;;;15.66;89.14
35806;BME280;21925;44.608;11.580;2023-03-14T02:47:28;100741.38;;;15.75;87.88
35806;BME280;21925;44.608;11.580;2023-03-14T02:50:00;100736.88;;;15.57;88.35
35806;BME280;21925;44.608;11.580;2023-03-14T02:52:27;100729.75;;;15.56;88.32
35806;BME280;21925;44.608;11.580;2023-03-14T02:54:53;100714.22;;;15.41;89.21
35806;BME280;21925;44.608;11.580;2023-03-14T02:57:28;100726.34;;;15.29;90.00
35806;BME280;21925;44.608;11.580;2023-03-14T02:59:54;100744.72;;;15.18;91.51
35806;BME280;21925;44.608;11.580;2023-03-14T03:02:19;100714.88;;;15.27;89.76
35806;BME280;21925;44.608;11.580;2023-03-14T03:04:45;100729.56;;;15.35;89.50
35806;BME280;21925;44.608;11.580;2023-03-14T03:07:10;100729.72;;;15.52;89.54
35806;BME280;21925;44.608;11.580;2023-03-14T03:09:36;100724.06;;;15.78;85.82
35806;BME280;21925;44.608;11.580;2023-03-14T03:12:01;100722.78;;;15.29;88.31
35806;BME280;21925;44.608;11.580;2023-03-14T03:14:28;100719.16;;;15.61;86.63
35806;BME280;21925;44.608;11.580;2023-03-14T03:16:58;100672.41;;;15.42;83.82
35806;BME280;21925;44.608;11.580;2023-03-14T03:19:23;100717.13;;;15.98;81.78
35806;BME280;21925;44.608;11.580;2023-03-14T03:21:49;100702.16;;;16.02;80.65
35806;BME280;21925;44.608;11.580;2023-03-14T03:24:14;100712.81;;;16.04;80.25
35806;BME280;21925;44.608;11.580;2023-03-14T03:26:40;100703.81;;;16.14;78.76
35806;BME280;21925;44.608;11.580;2023-03-14T03:29:08;100684.81;;;16.16;78.01
35806;BME280;21925;44.608;11.580;2023-03-14T03:31:37;100691.16;;;16.13;78.70
35806;BME280;21925;44.608;11.580;2023-03-14T03:34:02;100683.59;;;16.10;77.83
35806;BME280;21925;44.608;11.580;2023-03-14T03:36:28;100704.78;;;16.35;77.65
35806;BME280;21925;44.608;11.580;2023-03-14T03:38:54;100684.16;;;16.29;77.46
35806;BME280;21925;44.608;11.580;2023-03-14T03:41:19;100654.78;;;16.11;77.07
35806;BME280;21925;44.608;11.580;2023-03-14T03:43:47;100663.63;;;16.34;76.68
35806;BME280;21925;44.608;11.580;2023-03-14T03:46:15;100669.97;;;16.31;77.26
35806;BME280;21925;44.608;11.580;2023-03-14T03:48:40;100666.72;;;16.22;78.69
35806;BME280;21925;44.608;11.580;2023-03-14T03:51:06;100644.13;;;16.13;77.71
35806;BME280;21925;44.608;11.580;2023-03-14T03:53:33;100644.19;;;16.27;76.76
35806;BME280;21925;44.608;11.580;2023-03-14T03:56:02;100642.94;;;16.14;78.36
35806;BME280;21925;44.608;11.580;2023-03-14T03:58:28;100646.16;;;16.23;77.45
35806;BME280;21925;44.608;11.580;2023-03-14T04:00:55;100629.19;;;16.28;75.72
35806;BME280;21925;44.608;11.580;2023-03-14T04:03:20;100629.66;;;16.37;75.64
35806;BME280;21925;44.608;11.580;2023-03-14T04:05:57;100620.88;;;16.28;76.36
35806;BME280;21925;44.608;11.580;2023-03-14T04:08:22;100589.31;;;16.29;75.96
35806;BME280;21925;44.608;11.580;2023-03-14T04:10:48;100591.59;;;16.16;76.26
35806;BME280;21925;44.608;11.580;2023-03-14T04:13:18;100616.13;;;16.28;76.79
35806;BME280;21925;44.608;11.580;2023-03-14T04:15:49;100586.78;;;16.06;75.90
35806;BME280;21925;44.608;11.580;2023-03-14T04:18:20;100611.00;;;16.27;75.85
35806;BME280;21925;44.608;11.580;2023-03-14T04:20:54;100609.88;;;16.35;75.16
35806;BME280;21925;44.608;11.580;2023-03-14T04:23:23;100606.19;;;16.17;74.73
35806;BME280;21925;44.608;11.580;2023-03-14T04:25:53;100620.16;;;16.31;74.97
35806;BME280;21925;44.608;11.580;2023-03-14T04:28:19;100617.81;;;16.40;74.17
35806;BME280;21925;44.608;11.580;2023-03-14T04:30:45;100601.19;;;16.36;73.89
35806;BME280;21925;44.608;11.580;2023-03-14T04:33:15;100604.00;;;16.43;73.66
35806;BME280;21925;44.608;11.580;2023-03-14T04:35:47;100606.78;;;16.47;73.27
35806;BME280;21925;44.608;11.580;2023-03-14T04:38:15;100602.00;;;16.37;73.17
35806;BME280;21925;44.608;11.580;2023-03-14T04:40:44;100593.63;;;16.26;73.20
35806;BME280;21925;44.608;11.580;2023-03-14T04:43:11;100597.88;;;16.10;73.93
35806;BME280;21925;44.608;11.580;2023-03-14T04:45:43;100592.25;;;15.96;74.41
35806;BME280;21925;44.608;11.580;2023-03-14T04:48:09;100572.16;;;16.02;74.20
35806;BME280;21925;44.608;11.580;2023-03-14T04:50:36;100543.28;;;16.00;73.85
35806;BME280;21925;44.608;11.580;2023-03-14T04:53:01;100547.63;;;16.01;73.81
35806;BME280;21925;44.608;11.580;2023-03-14T04:55:27;100522.66;;;15.80;74.08
35806;BME280;21925;44.608;11.580;2023-03-14T04:57:54;100523.00;;;15.72;74.37
35806;BME280;21925;44.608;11.580;2023-03-14T05:00:20;100538.78;;;15.68;75.22
35806;BME280;21925;44.608;11.580;2023-03-14T05:02:52;100523.38;;;15.70;75.00
35806;BME280;21925;44.608;11.580;2023-03-14T05:05:37;100499.53;;;15.41;76.32
35806;BME280;21925;44.608;11.580;2023-03-14T05:08:31;100483.00;;;15.48;76.50
35806;BME280;21925;44.608;11.580;2023-03-14T05:11:16;100481.31;;;15.33;76.77
35806;BME280;21925;44.608;11.580;2023-03-14T05:13:57;100456.06;;;15.35;75.75
35806;BME280;21925;44.608;11.580;2023-03-14T05:16:45;100460.06;;;15.44;76.50
35806;BME280;21925;44.608;11.580;2023-03-14T05:19:35;100461.19;;;15.33;76.32
35806;BME280;21925;44.608;11.580;2023-03-14T05:22:24;100477.78;;;15.36;75.70
35806;BME280;21925;44.608;11.580;2023-03-14T05:25:16;100469.94;;;15.45;75.80
35806;BME280;21925;44.608;11.580;2023-03-14T05:27:44;100463.81;;;15.15;77.04
35806;BME280;21925;44.608;11.580;2023-03-14T05:30:29;100432.13;;;14.99;77.46
35806;BME280;21925;44.608;11.580;2023-03-14T05:32:58;100425.41;;;14.97;77.81
35806;BME280;21925;44.608;11.580;2023-03-14T05:35:42;100443.28;;;15.13;76.81
35806;BME280;21925;44.608;11.580;2023-03-14T05:38:24;100447.19;;;15.09;77.09
35806;BME280;21925;44.608;11.580;2023-03-14T05:41:09;100432.97;;;15.07;77.03
35806;BME280;21925;44.608;11.580;2023-03-14T05:43:35;100436.19;;;15.15;76.50
35806;BME280;21925;44.608;11.580;2023-03-14T05:46:14;100413.19;;;14.98;76.85
35806;BME280;21925;44.608;11.580;2023-03-14T05:49:00;100399.00;;;15.03;76.35
35806;BME280;21925;44.608;11.580;2023-03-14T05:51:31;100398.25;;;15.06;75.94
35806;BME280;21925;44.608;11.580;2023-03-14T05:54:20;100412.53;;;15.21;75.30
35806;BME280;21925;44.608;11.580;2023-03-14T05:57:14;100407.09;;;15.28;74.16
35806;BME280;21925;44.608;11.580;2023-03-14T06:00:09;100391.59;;;15.13;74.93
35806;BME280;21925;44.608;11.580;2023-03-14T06:02:54;100407.53;;;14.77;78.01
35806;BME280;21925;44.608;11.580;2023-03-14T06:05:26;100441.13;;;14.89;78.75
35806;BME280;21925;44.608;11.580;2023-03-14T06:07:57;100471.91;;;14.95;77.14
35806;BME280;21925;44.608;11.580;2023-03-14T06:10:22;100488.91;;;15.00;76.15
35806;BME280;21925;44.608;11.580;2023-03-14T06:12:48;100488.38;;;15.27;75.96
35806;BME280;21925;44.608;11.580;2023-03-14T06:15:14;100454.31;;;15.13;75.69
35806;BME280;21925;44.608;11.580;2023-03-14T06:17:41;100484.06;;;15.30;77.19
35806;BME280;21925;44.608;11.580;2023-03-14T06:20:10;100439.84;;;15.26;76.77
35806;BME280;21925;44.608;11.580;2023-03-14T06:22:36;100453.72;;;15.37;77.40
35806;BME280;21925;44.608;11.580;2023-03-14T06:25:02;100452.94;;;15.43;78.28
35806;BME280;21925;44.608;11.580;2023-03-14T06:27:29;100417.06;;;15.47;77.22
35806;BME280;21925;44.608;11.580;2023-03-14T06:29:56;100423.47;;;15.65;75.75
35806;BME280;21925;44.608;11.580;2023-03-14T06:32:24;100407.75;;;15.83;73.72
35806;BME280;21925;44.608;11.580;2023-03-14T06:34:52;100459.59;;;16.24;72.91
35806;BME280;21925;44.608;11.580;2023-03-14T06:37:18;100498.75;;;16.22;71.67
35806;BME280;21925;44.608;11.580;2023-03-14T06:39:45;100505.56;;;16.46;72.26
35806;BME280;21925;44.608;11.580;2023-03-14T06:42:20;100475.56;;;16.72;69.14
35806;BME280;21925;44.608;11.580;2023-03-14T06:44:47;100466.06;;;17.04;68.88
35806;BME280;21925;44.608;11.580;2023-03-14T06:47:12;100481.09;;;17.38;70.86
35806;BME280;21925;44.608;11.580;2023-03-14T06:49:41;100462.88;;;17.51;68.47
35806;BME280;21925;44.608;11.580;2023-03-14T06:52:07;100482.59;;;17.77;67.77
35806;BME280;21925;44.608;11.580;2023-03-14T06:54:32;100503.09;;;18.04;67.51
35806;BME280;21925;44.608;11.580;2023-03-14T06:56:58;100514.19;;;18.08;66.22
35806;BME280;21925;44.608;11.580;2023-03-14T06:59:24;100502.38;;;17.83;69.67
35806;BME280;21925;44.608;11.580;2023-03-14T07:01:50;100490.97;;;17.63;71.18
35806;BME280;21925;44.608;11.580;2023-03-14T07:04:17;100486.50;;;17.87;72.20
35806;BME280;21925;44.608;11.580;2023-03-14T07:06:46;100452.56;;;17.52;76.35
35806;BME280;21925;44.608;11.580;2023-03-14T07:09:13;100450.13;;;17.71;73.50
35806;BME280;21925;44.608;11.580;2023-03-14T07:11:43;100435.88;;;17.62;71.44
35806;BME280;21925;44.608;11.580;2023-03-14T07:14:09;100428.66;;;17.89;71.23
35806;BME280;21925;44.608;11.580;2023-03-14T07:16:35;100404.19;;;17.63;70.79
35806;BME280;21925;44.608;11.580;2023-03-14T07:19:01;100414.75;;;17.96;71.53
35806;BME280;21925;44.608;11.580;2023-03-14T07:21:27;100409.44;;;18.26;72.59
35806;BME280;21925;44.608;11.580;2023-03-14T07:23:53;100418.97;;;18.28;71.88
35806;BME280;21925;44.608;11.580;2023-03-14T07:26:19;100405.00;;;18.39;71.38
35806;BME280;21925;44.608;11.580;2023-03-14T07:28:49;100418.34;;;17.96;71.67
35806;BME280;21925;44.608;11.580;2023-03-14T07:31:17;100415.91;;;17.98;72.26
35806;BME280;21925;44.608;11.580;2023-03-14T07:33:45;100408.78;;;18.01;73.44
35806;BME280;21925;44.608;11.580;2023-03-14T07:36:11;100418.28;;;18.07;73.24
35806;BME280;21925;44.608;11.580;2023-03-14T07:38:40;100441.50;;;18.37;72.13
35806;BME280;21925;44.608;11.580;2023-03-14T07:41:13;100453.75;;;18.46;70.56
35806;BME280;21925;44.608;11.580;2023-03-14T07:43:46;100453.03;;;18.86;71.26
35806;BME280;21925;44.608;11.580;2023-03-14T07:46:12;100454.09;;;19.03;70.63
35806;BME280;21925;44.608;11.580;2023-03-14T07:48:38;100419.97;;;19.02;71.31
35806;BME280;21925;44.608;11.580;2023-03-14T07:51:03;100407.19;;;19.12;70.40
35806;BME280;21925;44.608;11.580;2023-03-14T07:53:29;100411.16;;;19.14;69.04
35806;BME280;21925;44.608;11.580;2023-03-14T07:55:55;100401.47;;;18.85;70.69
35806;BME280;21925;44.608;11.580;2023-03-14T07:58:21;100346.44;;;18.73;70.89
35806;BME280;21925;44.608;11.580;2023-03-14T08:00:47;100397.72;;;19.46;71.59
35806;BME280;21925;44.608;11.580;2023-03-14T08:03:13;100393.44;;;19.38;70.88
35806;BME280;21925;44.608;11.580;2023-03-14T08:05:39;100401.56;;;19.19;69.94
35806;BME280;21925;44.608;11.580;2023-03-14T08:08:05;100374.69;;;19.05;73.66
35806;BME280;21925;44.608;11.580;2023-03-14T08:10:31;100398.06;;;19.48;72.80
35806;BME280;21925;44.608;11.580;2023-03-14T08:12:58;100395.31;;;19.78;68.62
35806;BME280;21925;44.608;11.580;2023-03-14T08:15:25;100386.38;;;20.49;67.55
35806;BME280;21925;44.608;11.580;2023-03-14T08:17:51;100379.38;;;20.87;67.17
35806;BME280;21925;44.608;11.580;2023-03-14T08:20:19;100371.00;;;20.64;64.52
35806;BME280;21925;44.608;11.580;2023-03-14T08:22:44;100386.53;;;20.88;64.72
35806;BME280;21925;44.608;11.580;2023-03-14T08:25:10;100346.63;;;20.68;64.91
35806;BME280;21925;44.608;11.580;2023-03-14T08:27:36;100364.66;;;21.09;64.51
35806;BME280;21925;44.608;11.580;2023-03-14T08:30:09;100366.16;;;21.14;64.18
35806;BME280;21925;44.608;11.580;2023-03-14T08:32:34;100368.22;;;21.10;61.74
35806;BME280;21925;44.608;11.580;2023-03-14T08:35:00;100385.19;;;20.73;62.37
35806;BME280;21925;44.608;11.580;2023-03-14T08:37:26;100367.59;;;20.53;64.13
35806;BME280;21925;44.608;11.580;2023-03-14T08:39:52;100381.47;;;20.83;64.96
35806;BME280;21925;44.608;11.580;2023-03-14T08:42:18;100375.59;;;20.74;64.71
35806;BME280;21925;44.608;11.580;2023-03-14T08:44:44;100362.94;;;20.20;66.54
35806;BME280;21925;44.608;11.580;2023-03-14T08:47:10;100372.69;;;20.05;68.55
35806;BME280;21925;44.608;11.580;2023-03-14T08:49:36;100372.06;;;19.95;66.94
35806;BME280;21925;44.608;11.580;2023-03-14T08:52:03;100369.53;;;20.07;69.53
35806;BME280;21925;44.608;11.580;2023-03-14T08:54:29;100357.06;;;19.55;69.96
35806;BME280;21925;44.608;11.580;2023-03-14T08:56:54;100370.25;;;19.48;72.23
35806;BME280;21925;44.608;11.580;2023-03-14T08:59:20;100372.38;;;19.37;69.89
35806;BME280;21925;44.608;11.580;2023-03-14T09:01:46;100371.19;;;19.38;69.16
35806;BME280;21925;44.608;11.580;2023-03-14T09:04:11;100368.88;;;19.29;69.81
35806;BME280;21925;44.608;11.580;2023-03-14T09:06:37;100389.16;;;19.30;69.21
35806;BME280;21925;44.608;11.580;2023-03-14T09:09:02;100387.16;;;19.30;70.11
35806;BME280;21925;44.608;11.580;2023-03-14T09:11:28;100351.09;;;19.23;67.94
35806;BME280;21925;44.608;11.580;2023-03-14T09:13:54;100380.91;;;19.56;68.31
35806;BME280;21925;44.608;11.580;2023-03-14T09:16:19;100362.81;;;20.27;69.72
35806;BME280;21925;44.608;11.580;2023-03-14T09:18:45;100367.84;;;20.62;65.84
35806;BME280;21925;44.608;11.580;2023-03-14T09:21:10;100363.50;;;21.07;65.38
35806;BME280;21925;44.608;11.580;2023-03-14T09:23:36;100388.72;;;21.00;63.72
35806;BME280;21925;44.608;11.580;2023-03-14T09:26:02;100388.63;;;21.46;65.48
35806;BME280;21925;44.608;11.580;2023-03-14T09:28:27;100376.22;;;21.69;64.30
35806;BME280;21925;44.608;11.580;2023-03-14T09:30:53;100385.25;;;21.35;64.76
35806;BME280;21925;44.608;11.580;2023-03-14T09:33:20;100377.38;;;21.10;64.73
35806;BME280;21925;44.608;11.580;2023-03-14T09:35:46;100344.69;;;21.11;65.90
35806;BME280;21925;44.608;11.580;2023-03-14T09:38:11;100333.31;;;21.21;67.04
35806;BME280;21925;44.608;11.580;2023-03-14T09:40:38;100364.59;;;21.52;64.82
35806;BME280;21925;44.608;11.580;2023-03-14T09:43:04;100381.13;;;21.43;63.82
35806;BME280;21925;44.608;11.580;2023-03-14T09:45:38;100383.91;;;21.43;65.94
35806;BME280;21925;44.608;11.580;2023-03-14T09:48:08;100373.13;;;21.64;67.18
35806;BME280;21925;44.608;11.580;2023-03-14T09:50:41;100388.41;;;21.95;63.90
35806;BME280;21925;44.608;11.580;2023-03-14T09:53:20;100389.06;;;21.44;63.06
35806;BME280;21925;44.608;11.580;2023-03-14T09:55:49;100367.59;;;21.41;64.97
35806;BME280;21925;44.608;11.580;2023-03-14T09:58:20;100380.13;;;21.53;63.56
35806;BME280;21925;44.608;11.580;2023-03-14T10:00:47;100365.72;;;21.15;63.58
35806;BME280;21925;44.608;11.580;2023-03-14T10:03:32;100372.59;;;21.30;65.52
35806;BME280;21925;44.608;11.580;2023-03-14T10:05:59;100356.28;;;21.09;63.04
35806;BME280;21925;44.608;11.580;2023-03-14T10:08:24;100366.00;;;21.21;65.75
35806;BME280;21925;44.608;11.580;2023-03-14T10:10:50;100362.81;;;21.61;66.49
35806;BME280;21925;44.608;11.580;2023-03-14T10:13:17;100357.06;;;21.29;65.26
35806;BME280;21925;44.608;11.580;2023-03-14T10:15:59;100356.97;;;21.13;67.00
35806;BME280;21925;44.608;11.580;2023-03-14T10:18:28;100359.03;;;20.90;67.27
35806;BME280;21925;44.608;11.580;2023-03-14T10:21:20;100348.00;;;20.83;65.75
35806;BME280;21925;44.608;11.580;2023-03-14T10:23:46;100339.75;;;20.99;67.97
35806;BME280;21925;44.608;11.580;2023-03-14T10:26:31;100346.06;;;21.22;67.76
35806;BME280;21925;44.608;11.580;2023-03-14T10:29:11;100329.47;;;21.15;67.73
35806;BME280;21925;44.608;11.580;2023-03-14T10:31:58;100302.81;;;21.14;69.42
35806;BME280;21925;44.608;11.580;2023-03-14T10:34:27;100323.75;;;21.03;68.44
35806;BME280;21925;44.608;11.580;2023-03-14T10:36:59;100312.81;;;21.12;69.23
35806;BME280;21925;44.608;11.580;2023-03-14T10:44:42;100299.91;;;20.56;68.09
35806;BME280;21925;44.608;11.580;2023-03-14T10:47:16;100306.94;;;20.87;70.42
35806;BME280;21925;44.608;11.580;2023-03-14T10:49:42;100296.59;;;21.07;70.33
35806;BME280;21925;44.608;11.580;2023-03-14T10:52:25;100296.81;;;21.16;70.53
35806;BME280;21925;44.608;11.580;2023-03-14T10:54:59;100284.34;;;21.01;71.29
35806;BME280;21925;44.608;11.580;2023-03-14T10:57:25;100283.19;;;20.79;69.52
35806;BME280;21925;44.608;11.580;2023-03-14T10:59:52;100239.97;;;20.90;72.11
35806;BME280;21925;44.608;11.580;2023-03-14T11:07:47;100253.38;;;20.76;68.52
35806;BME280;21925;44.608;11.580;2023-03-14T11:22:01;100239.56;;;21.66;70.26
35806;BME280;21925;44.608;11.580;2023-03-14T11:35:30;100223.63;;;24.30;64.84
35806;BME280;21925;44.608;11.580;2023-03-14T11:40:26;100203.34;;;24.94;64.08
35806;BME280;21925;44.608;11.580;2023-03-14T11:43:10;100202.19;;;25.04;64.11
35806;BME280;21925;44.608;11.580;2023-03-14T11:45:40;100210.53;;;24.15;61.88
35806;BME280;21925;44.608;11.580;2023-03-14T11:50:57;100209.81;;;23.12;64.62
35806;BME280;21925;44.608;11.580;2023-03-14T11:53:50;100197.69;;;24.17;65.98
35806;BME280;21925;44.608;11.580;2023-03-14T11:56:33;100178.97;;;24.02;63.11
35806;BME280;21925;44.608;11.580;2023-03-14T11:59:09;100194.88;;;23.31;63.75
35806;BME280;21925;44.608;11.580;2023-03-14T12:01:49;100173.50;;;23.36;63.76
35806;BME280;21925;44.608;11.580;2023-03-14T12:06:50;100181.69;;;23.68;60.17
35806;BME280;21925;44.608;11.580;2023-03-14T12:09:18;100169.34;;;24.03;60.51
35806;BME280;21925;44.608;11.580;2023-03-14T12:11:47;100174.91;;;24.28;58.94
35806;BME280;21925;44.608;11.580;2023-03-14T12:14:24;100174.84;;;24.40;60.83
35806;BME280;21925;44.608;11.580;2023-03-14T12:16:57;100175.19;;;24.09;59.90
35806;BME280;21925;44.608;11.580;2023-03-14T12:19:25;100173.97;;;23.97;61.00
35806;BME280;21925;44.608;11.580;2023-03-14T12:24:54;100134.31;;;24.66;59.22
35806;BME280;21925;44.608;11.580;2023-03-14T12:27:46;100138.00;;;24.29;59.97
35806;BME280;21925;44.608;11.580;2023-03-14T12:35:49;100134.97;;;24.03;59.34
35806;BME280;21925;44.608;11.580;2023-03-14T12:38:23;100145.06;;;24.34;60.13
35806;BME280;21925;44.608;11.580;2023-03-14T12:43:39;100141.47;;;24.00;59.92
35806;BME280;21925;44.608;11.580;2023-03-14T12:49:09;100130.38;;;24.64;58.54
35806;BME280;21925;44.608;11.580;2023-03-14T12:51:39;100124.97;;;24.69;59.14
35806;BME280;21925;44.608;11.580;2023-03-14T12:57:15;100114.94;;;23.67;56.87
35806;BME280;21925;44.608;11.580;2023-03-14T13:02:22;100097.75;;;24.36;58.01
35806;BME280;21925;44.608;11.580;2023-03-14T13:07:32;100095.06;;;24.96;57.17
35806;BME280;21925;44.608;11.580;2023-03-14T13:12:34;100083.44;;;24.77;56.13
35806;BME280;21925;44.608;11.580;2023-03-14T13:15:11;100079.25;;;24.38;57.64
35806;BME280;21925;44.608;11.580;2023-03-14T13:17:40;100082.00;;;24.72;56.69
35806;BME280;21925;44.608;11.580;2023-03-14T13:20:21;100076.75;;;24.19;55.37
35806;BME280;21925;44.608;11.580;2023-03-14T13:22:49;100075.66;;;23.83;56.64
35806;BME280;21925;44.608;11.580;2023-03-14T13:25:15;100073.50;;;24.85;55.55
35806;BME280;21925;44.608;11.580;2023-03-14T13:27:42;100062.69;;;25.04;54.34
35806;BME280;21925;44.608;11.580;2023-03-14T13:32:48;100077.03;;;23.41;57.34
35806;BME280;21925;44.608;11.580;2023-03-14T13:35:38;100081.81;;;23.90;57.37
35806;BME280;21925;44.608;11.580;2023-03-14T13:38:04;100079.56;;;23.85;56.96
35806;BME280;21925;44.608;11.580;2023-03-14T13:40:34;100048.97;;;24.46;59.20
35806;BME280;21925;44.608;11.580;2023-03-14T13:43:14;100076.28;;;23.16;64.70
35806;BME280;21925;44.608;11.580;2023-03-14T13:45:43;100082.63;;;22.63;68.02
35806;BME280;21925;44.608;11.580;2023-03-14T13:48:11;100091.75;;;21.94;70.65
35806;BME280;21925;44.608;11.580;2023-03-14T13:50:37;100083.06;;;21.61;73.50
35806;BME280;21925;44.608;11.580;2023-03-14T13:53:03;100097.50;;;21.40;74.73
35806;BME280;21925;44.608;11.580;2023-03-14T13:55:29;100094.44;;;21.50;75.67
35806;BME280;21925;44.608;11.580;2023-03-14T13:57:55;100107.19;;;21.51;73.80
35806;BME280;21925;44.608;11.580;2023-03-14T14:00:26;100104.13;;;21.46;73.70
35806;BME280;21925;44.608;11.580;2023-03-14T14:02:53;100115.81;;;21.57;73.62
35806;BME280;21925;44.608;11.580;2023-03-14T14:05:21;100097.78;;;21.77;73.56
35806;BME280;21925;44.608;11.580;2023-03-14T14:07:49;100093.03;;;22.06;73.18